Time;durP1;ratioP1;P1;durP2;ratioP2;P2;SDS_P1;SDS_P2;PMS_P1;PMS_P2;Temp;Humidity;BMP_temperature;BMP_pressure;BME280_temperature;BME280_humidity;BME280_pressure;Samples;Min_cycle;Max_cycle;Signal;HPM_P1;HPM_P2
2023/04/22 00:03:27;;;;;;;13.55;6.82;;;;;;;;;;10298481;28;20068;-69
2023/04/22 00:08:28;;;;;;;9.68;6.28;;;;;;;;;;10298158;28;20076;-69
2023/04/22 00:13:26;;;;;;;7.75;5.47;;;;;;;;;;10298940;28;20076;-69
2023/04/22 00:18:24;;;;;;;9.65;5.85;;;;;;;;;;10298757;28;20091;-69
2023/04/22 00:23:24;;;;;;;10.77;5.40;;;;;;;;;;10298527;28;20087;-69
2023/04/22 00:28:23;;;;;;;13.02;5.88;;;;;;;;;;10297482;28;20080;-69
2023/04/22 00:33:21;;;;;;;8.43;5.85;;;;;;;;;;10297311;28;20087;-69
2023/04/22 00:38:19;;;;;;;11.02;5.75;;;;;;;;;;10295907;28;20491;-69
2023/04/22 00:43:19;;;;;;;13.05;5.80;;;;;;;;;;10295597;28;20096;-69
2023/04/22 00:48:17;;;;;;;10.60;5.13;;;;;;;;;;10295872;28;20095;-69
2023/04/22 00:53:15;;;;;;;11.65;5.93;;;;;;;;;;10297560;28;20465;-69
2023/04/22 00:58:14;;;;;;;8.77;5.78;;;;;;;;;;10295651;28;20084;-69
2023/04/22 01:03:14;;;;;;;8.85;5.43;;;;;;;;;;10295147;28;20045;-69
2023/04/22 01:08:12;;;;;;;9.88;5.20;;;;;;;;;;10296487;28;20087;-69
2023/04/22 01:13:11;;;;;;;14.00;5.07;;;;;;;;;;10296779;28;20072;-69
2023/04/22 01:18:09;;;;;;;8.52;5.93;;;;;;;;;;10296400;28;20079;-69
2023/04/22 01:23:15;;;;;;;13.10;6.45;;;;;;;;;;10296125;28;20080;-69
2023/04/22 01:28:13;;;;;;;12.02;5.90;;;;;;;;;;10296272;28;20079;-69
2023/04/22 01:33:12;;;;;;;10.57;5.97;;;;;;;;;;10293806;28;20055;-69
2023/04/22 01:38:11;;;;;;;8.95;5.88;;;;;;;;;;10293368;28;20049;-68
2023/04/22 01:43:11;;;;;;;10.27;5.57;;;;;;;;;;10294951;28;20084;-69
2023/04/22 01:48:10;;;;;;;9.05;5.47;;;;;;;;;;10292756;28;20051;-68
2023/04/22 01:53:08;;;;;;;9.52;5.13;;;;;;;;;;10295498;28;20087;-68
2023/04/22 01:58:06;;;;;;;8.63;5.03;;;;;;;;;;10294450;28;20088;-69
2023/04/22 02:03:06;;;;;;;13.98;6.18;;;;;;;;;;10293606;28;20064;-69
2023/04/22 02:08:05;;;;;;;11.52;5.45;;;;;;;;;;10293413;28;20139;-69
2023/04/22 02:13:03;;;;;;;9.98;5.85;;;;;;;;;;10311364;28;20049;-69
2023/04/22 02:18:01;;;;;;;8.63;5.60;;;;;;;;;;10279515;28;20056;-68
2023/04/22 02:23:01;;;;;;;7.75;4.90;;;;;;;;;;10294083;28;20063;-69
2023/04/22 02:27:59;;;;;;;8.90;5.13;;;;;;;;;;10293901;28;20064;-69
2023/04/22 02:32:58;;;;;;;10.18;4.72;;;;;;;;;;10276681;28;20203;-69
2023/04/22 02:37:56;;;;;;;8.85;7.07;;;;;;;;;;10292785;28;20091;-69
2023/04/22 02:42:57;;;;;;;7.38;4.80;;;;;;;;;;10276627;28;20097;-68
2023/04/22 02:47:58;;;;;;;7.72;4.28;;;;;;;;;;10277171;28;20106;-69
2023/04/22 02:52:56;;;;;;;7.88;4.50;;;;;;;;;;10302887;28;20061;-69
2023/04/22 02:57:54;;;;;;;5.88;4.30;;;;;;;;;;10291960;28;20068;-69
2023/04/22 03:02:53;;;;;;;9.25;4.38;;;;;;;;;;10297112;28;20076;-68
2023/04/22 03:07:56;;;;;;;8.10;4.35;;;;;;;;;;10287642;28;20517;-69
2023/04/22 03:12:54;;;;;;;6.53;4.25;;;;;;;;;;10299319;28;20049;-68
2023/04/22 03:17:57;;;;;;;9.63;4.00;;;;;;;;;;10298793;28;20087;-69
2023/04/22 03:22:56;;;;;;;8.57;5.05;;;;;;;;;;10299282;28;20506;-69
2023/04/22 03:27:57;;;;;;;7.13;4.20;;;;;;;;;;10298741;28;20052;-69
2023/04/22 03:33:00;;;;;;;12.05;4.20;;;;;;;;;;10298637;28;20049;-69
2023/04/22 03:38:20;;;;;;;9.07;4.25;;;;;;;;;;10300056;28;20090;-70
2023/04/22 03:43:21;;;;;;;5.10;3.53;;;;;;;;;;10311827;28;20167;-69
2023/04/22 03:48:34;;;;;;;4.53;3.33;;;;;;;;;;10271659;28;20087;-69
2023/04/22 03:53:36;;;;;;;6.53;3.75;;;;;;;;;;10294356;28;20056;-69
2023/04/22 03:58:36;;;;;;;7.28;3.70;;;;;;;;;;10269484;28;20515;-69
2023/04/22 04:03:38;;;;;;;19.95;7.05;;;;;;;;;;10270164;28;20064;-69
2023/04/22 04:08:39;;;;;;;36.53;9.98;;;;;;;;;;10294787;28;20049;-69
2023/04/22 04:13:37;;;;;;;14.77;7.70;;;;;;;;;;10293125;28;20087;-69
2023/04/22 04:18:51;;;;;;;15.45;8.07;;;;;;;;;;10277772;28;20084;-69
2023/04/22 04:23:51;;;;;;;49.58;12.50;;;;;;;;;;10300038;28;20045;-68
2023/04/22 04:28:55;;;;;;;23.80;10.02;;;;;;;;;;10292695;28;20056;-67
2023/04/22 04:33:56;;;;;;;15.50;8.77;;;;;;;;;;10296951;28;20092;-68
2023/04/22 04:38:55;;;;;;;23.63;9.20;;;;;;;;;;10267476;28;20080;-68
2023/04/22 04:43:55;;;;;;;13.35;7.45;;;;;;;;;;10230750;28;1116831;-67
2023/04/22 04:48:59;;;;;;;;;;;;;;;;;;10296141;28;20526;-69
2023/04/22 04:54:01;;;;;;;11.18;7.15;;;;;;;;;;10295998;28;20033;-69
2023/04/22 04:59:05;;;;;;;17.20;6.60;;;;;;;;;;10295284;28;20081;-68
2023/04/22 05:04:04;;;;;;;8.90;5.65;;;;;;;;;;10294980;28;20079;-68
2023/04/22 05:09:06;;;;;;;8.88;5.82;;;;;;;;;;10294885;28;20056;-68
2023/04/22 05:14:06;;;;;;;15.48;5.50;;;;;;;;;;10293569;28;20068;-68
2023/04/22 05:19:09;;;;;;;10.95;4.75;;;;;;;;;;10290758;28;20095;-69
2023/04/22 05:24:08;;;;;;;10.98;5.35;;;;;;;;;;10293801;28;20087;-68
2023/04/22 05:29:07;;;;;;;11.80;6.72;;;;;;;;;;10296214;28;20083;-69
2023/04/22 05:34:05;;;;;;;11.77;6.15;;;;;;;;;;10294669;28;20079;-69
2023/04/22 05:39:03;;;;;;;6.63;4.85;;;;;;;;;;10279799;28;20077;-68
2023/04/22 05:44:04;;;;;;;16.25;6.70;;;;;;;;;;10273715;28;20540;-68
2023/04/22 05:49:03;;;;;;;12.23;5.80;;;;;;;;;;10284588;28;20725;-69
2023/04/22 05:54:36;;;;;;;16.90;6.22;;;;;;;;;;10268957;28;20470;-69
2023/04/22 05:59:36;;;;;;;12.82;5.60;;;;;;;;;;10278550;28;20077;-69
2023/04/22 06:04:35;;;;;;;9.80;6.55;;;;;;;;;;10274088;28;20079;-69
2023/04/22 06:09:36;;;;;;;7.43;4.93;;;;;;;;;;10269483;28;20076;-69
2023/04/22 06:14:34;;;;;;;9.40;5.10;;;;;;;;;;10292693;28;20068;-68
2023/04/22 06:19:33;;;;;;;10.13;5.35;;;;;;;;;;10283006;28;20064;-69
2023/04/22 06:24:32;;;;;;;10.30;6.32;;;;;;;;;;10283358;28;20055;-68
2023/04/22 06:29:30;;;;;;;7.75;5.88;;;;;;;;;;10282392;28;20037;-69
2023/04/22 06:34:28;;;;;;;11.50;5.50;;;;;;;;;;10294190;28;20068;-69
2023/04/22 06:39:28;;;;;;;9.32;4.80;;;;;;;;;;10284691;28;20536;-68
2023/04/22 06:44:44;;;;;;;20.02;8.57;;;;;;;;;;10285874;28;20087;-68
2023/04/22 06:49:53;;;;;;;22.80;7.75;;;;;;;;;;10294587;28;20407;-68
2023/04/22 06:54:59;;;;;;;15.65;8.90;;;;;;;;;;10299937;28;20513;-68
2023/04/22 06:59:57;;;;;;;13.05;7.68;;;;;;;;;;10266066;28;20084;-68
2023/04/22 07:04:57;;;;;;;15.55;5.57;;;;;;;;;;10272173;28;20076;-68
2023/04/22 07:09:55;;;;;;;14.65;5.93;;;;;;;;;;10280636;28;20072;-69
2023/04/22 07:14:58;;;;;;;19.70;7.60;;;;;;;;;;10273350;28;20088;-69
2023/04/22 07:19:57;;;;;;;9.98;5.53;;;;;;;;;;10269191;28;20073;-69
2023/04/22 07:24:55;;;;;;;18.05;8.00;;;;;;;;;;10273533;28;20087;-69
2023/04/22 07:29:53;;;;;;;14.82;5.75;;;;;;;;;;10283393;28;20093;-69
2023/04/22 07:34:53;;;;;;;10.02;5.20;;;;;;;;;;10280603;28;20072;-67
2023/04/22 07:39:51;;;;;;;10.98;5.07;;;;;;;;;;10289802;28;20064;-69
2023/04/22 07:44:49;;;;;;;7.88;5.40;;;;;;;;;;10286730;28;20087;-69
2023/04/22 07:49:48;;;;;;;17.83;6.05;;;;;;;;;;10295409;28;20071;-69
2023/04/22 07:54:47;;;;;;;10.38;5.55;;;;;;;;;;10296913;28;20113;-68
2023/04/22 07:59:45;;;;;;;11.00;5.78;;;;;;;;;;10298167;28;20072;-68
2023/04/22 08:04:43;;;;;;;18.77;5.72;;;;;;;;;;10301105;28;20079;-68
2023/04/22 08:09:42;;;;;;;13.95;5.40;;;;;;;;;;10296712;28;20135;-68
2023/04/22 08:14:41;;;;;;;13.35;7.20;;;;;;;;;;10298031;28;20474;-68
2023/04/22 08:19:41;;;;;;;9.30;4.80;;;;;;;;;;10296474;28;20084;-68
2023/04/22 08:24:42;;;;;;;10.65;5.40;;;;;;;;;;10295358;28;20564;-68
2023/04/22 08:29:41;;;;;;;24.58;10.63;;;;;;;;;;10297532;28;20079;-67
2023/04/22 08:34:40;;;;;;;14.65;8.00;;;;;;;;;;10297353;28;20467;-68
2023/04/22 08:39:38;;;;;;;17.55;6.55;;;;;;;;;;10296963;28;20103;-68
2023/04/22 08:44:38;;;;;;;6.70;4.30;;;;;;;;;;10297277;28;20095;-68
2023/04/22 08:49:38;;;;;;;13.57;4.95;;;;;;;;;;10295718;28;20079;-68
2023/04/22 08:54:37;;;;;;;7.28;5.18;;;;;;;;;;10296719;28;20486;-68
2023/04/22 08:59:35;;;;;;;17.00;5.10;;;;;;;;;;10297750;28;20077;-68
2023/04/22 09:04:33;;;;;;;9.70;4.03;;;;;;;;;;10295916;28;20069;-68
2023/04/22 09:09:34;;;;;;;18.30;9.60;;;;;;;;;;10295515;28;20069;-68
2023/04/22 09:14:33;;;;;;;22.20;5.57;;;;;;;;;;10294996;28;20084;-68
2023/04/22 09:19:31;;;;;;;12.30;4.50;;;;;;;;;;10293441;28;20069;-68
2023/04/22 09:24:30;;;;;;;13.13;6.15;;;;;;;;;;10294967;28;20061;-69
2023/04/22 09:29:31;;;;;;;11.77;4.90;;;;;;;;;;10296244;28;20068;-69
2023/04/22 09:34:29;;;;;;;8.75;4.20;;;;;;;;;;10295729;28;20178;-69
2023/04/22 09:39:29;;;;;;;12.38;4.50;;;;;;;;;;10295655;28;20076;-67
2023/04/22 09:44:27;;;;;;;12.82;4.60;;;;;;;;;;10294763;28;20083;-68
2023/04/22 09:49:28;;;;;;;19.10;7.13;;;;;;;;;;10295168;28;20080;-68
2023/04/22 09:54:26;;;;;;;14.50;5.82;;;;;;;;;;10295281;28;20075;-69
2023/04/22 09:59:25;;;;;;;14.38;6.00;;;;;;;;;;10294516;28;20469;-68
2023/04/22 10:04:23;;;;;;;12.18;4.63;;;;;;;;;;10295618;28;20069;-69
2023/04/22 10:09:24;;;;;;;13.07;3.95;;;;;;;;;;10294101;28;20082;-68
2023/04/22 10:14:22;;;;;;;8.70;4.47;;;;;;;;;;10293700;28;20079;-68
2023/04/22 10:19:21;;;;;;;15.07;3.95;;;;;;;;;;10292396;28;20494;-68
2023/04/22 10:24:19;;;;;;;12.80;3.90;;;;;;;;;;10293281;28;20083;-68
2023/04/22 10:29:20;;;;;;;8.40;3.45;;;;;;;;;;10295171;28;20483;-69
2023/04/22 10:34:18;;;;;;;11.35;4.43;;;;;;;;;;10295386;28;20080;-69
2023/04/22 10:39:17;;;;;;;9.98;4.10;;;;;;;;;;10294652;28;20083;-69
2023/04/22 10:44:16;;;;;;;13.50;3.85;;;;;;;;;;10294926;28;20115;-70
2023/04/22 10:49:19;;;;;;;11.23;4.20;;;;;;;;;;10295351;28;20076;-69
2023/04/22 10:54:35;;;;;;;11.43;4.85;;;;;;;;;;10295448;28;20084;-69
2023/04/22 10:59:34;;;;;;;10.60;3.92;;;;;;;;;;10293447;28;20072;-69
2023/04/22 11:04:34;;;;;;;12.65;3.92;;;;;;;;;;10292510;28;20095;-67
2023/04/22 11:09:32;;;;;;;9.73;4.68;;;;;;;;;;10294529;28;20482;-68
2023/04/22 11:14:32;;;;;;;8.98;4.28;;;;;;;;;;10300579;28;20076;-68
2023/04/22 11:19:30;;;;;;;6.22;3.35;;;;;;;;;;10299973;28;20080;-67
2023/04/22 11:24:30;;;;;;;8.07;4.40;;;;;;;;;;10301728;28;20051;-69
2023/04/22 11:29:28;;;;;;;12.18;5.63;;;;;;;;;;10312049;28;20048;-68
2023/04/22 11:34:26;;;;;;;6.78;3.85;;;;;;;;;;10301169;28;20045;-69
2023/04/22 11:39:35;;;;;;;7.03;4.03;;;;;;;;;;10298428;28;20076;-68
2023/04/22 11:44:38;;;;;;;10.63;4.13;;;;;;;;;;10299950;28;20131;-68
2023/04/22 11:49:38;;;;;;;11.73;4.82;;;;;;;;;;10300285;28;20048;-68
2023/04/22 11:54:38;;;;;;;9.80;4.95;;;;;;;;;;10298480;28;20073;-68
2023/04/22 11:59:36;;;;;;;8.18;3.80;;;;;;;;;;10299122;28;20076;-69
2023/04/22 12:04:36;;;;;;;6.90;4.93;;;;;;;;;;10298841;28;20078;-69
2023/04/22 12:09:34;;;;;;;12.35;5.07;;;;;;;;;;10298635;28;20091;-69
2023/04/22 12:14:34;;;;;;;15.07;4.65;;;;;;;;;;10298904;28;20068;-68
2023/04/22 12:19:32;;;;;;;11.45;8.20;;;;;;;;;;10297714;28;20471;-69
2023/04/22 12:24:30;;;;;;;12.38;5.20;;;;;;;;;;10296840;28;20076;-69
2023/04/22 12:29:30;;;;;;;8.85;3.78;;;;;;;;;;10298316;28;20073;-69
2023/04/22 12:34:30;;;;;;;8.13;4.40;;;;;;;;;;10297334;28;20113;-69
2023/04/22 12:39:28;;;;;;;14.15;4.70;;;;;;;;;;10294863;28;20494;-69
2023/04/22 12:44:26;;;;;;;7.57;3.65;;;;;;;;;;10299851;28;20095;-69
2023/04/22 12:49:24;;;;;;;8.15;3.72;;;;;;;;;;10297391;28;20072;-69
2023/04/22 12:54:24;;;;;;;7.95;3.80;;;;;;;;;;10297124;28;20082;-68
2023/04/22 12:59:22;;;;;;;10.18;3.83;;;;;;;;;;10296145;28;20069;-69
2023/04/22 13:04:20;;;;;;;5.93;2.97;;;;;;;;;;10297169;28;20083;-69
2023/04/22 13:09:19;;;;;;;5.68;3.88;;;;;;;;;;10297307;28;20087;-69
2023/04/22 13:14:19;;;;;;;9.48;3.63;;;;;;;;;;10294104;28;20102;-69
2023/04/22 13:19:17;;;;;;;10.10;3.47;;;;;;;;;;10294379;28;20510;-69
2023/04/22 13:24:15;;;;;;;8.88;3.30;;;;;;;;;;10295811;28;20073;-69
2023/04/22 13:29:13;;;;;;;7.43;3.38;;;;;;;;;;10295156;28;20122;-69
2023/04/22 13:34:14;;;;;;;7.28;4.28;;;;;;;;;;10294920;28;20084;-68
2023/04/22 13:39:12;;;;;;;11.48;4.07;;;;;;;;;;10295498;28;20083;-69
2023/04/22 13:44:10;;;;;;;8.52;3.92;;;;;;;;;;10295336;28;20091;-69
2023/04/22 13:49:09;;;;;;;7.75;3.20;;;;;;;;;;10294538;28;20068;-69
2023/04/22 13:54:08;;;;;;;9.48;3.35;;;;;;;;;;10295321;28;20072;-69
2023/04/22 13:59:06;;;;;;;10.40;3.17;;;;;;;;;;10293070;28;20077;-68
2023/04/22 14:04:05;;;;;;;8.50;2.90;;;;;;;;;;10293861;28;20084;-69
2023/04/22 14:09:04;;;;;;;8.23;3.45;;;;;;;;;;10294505;28;20467;-69
2023/04/22 14:14:03;;;;;;;8.88;3.60;;;;;;;;;;10294088;28;20069;-69
2023/04/22 14:19:03;;;;;;;6.95;2.85;;;;;;;;;;10293924;28;20084;-69
2023/04/22 14:24:01;;;;;;;8.95;3.95;;;;;;;;;;10293701;28;20099;-69
2023/04/22 14:28:59;;;;;;;10.07;2.85;;;;;;;;;;10293438;28;20076;-69
2023/04/22 14:33:58;;;;;;;6.40;2.85;;;;;;;;;;10296029;28;20808;-69
2023/04/22 14:38:57;;;;;;;6.93;3.55;;;;;;;;;;10291958;28;20083;-69
2023/04/22 14:43:55;;;;;;;5.97;2.67;;;;;;;;;;10293937;28;20084;-69
2023/04/22 14:48:53;;;;;;;8.13;3.80;;;;;;;;;;10302049;28;20075;-69
2023/04/22 14:53:52;;;;;;;6.00;2.78;;;;;;;;;;10302225;28;20064;-68
2023/04/22 14:58:51;;;;;;;7.35;4.85;;;;;;;;;;10302943;28;20091;-68
2023/04/22 15:03:50;;;;;;;8.30;4.57;;;;;;;;;;10301470;28;20499;-69
2023/04/22 15:08:50;;;;;;;22.75;14.27;;;;;;;;;;10301680;28;20076;-69
2023/04/22 15:13:50;;;;;;;22.58;18.20;;;;;;;;;;10301214;28;20071;-69
2023/04/22 15:18:48;;;;;;;8.73;5.30;;;;;;;;;;10299026;28;20076;-69
2023/04/22 15:23:46;;;;;;;11.55;7.38;;;;;;;;;;10300065;28;20122;-69
2023/04/22 15:28:44;;;;;;;6.05;5.00;;;;;;;;;;10298703;28;20083;-69
2023/04/22 15:33:44;;;;;;;9.68;4.68;;;;;;;;;;10297837;28;20081;-69
2023/04/22 15:38:42;;;;;;;22.83;12.00;;;;;;;;;;10299513;28;20079;-69
2023/04/22 15:43:40;;;;;;;4.85;3.58;;;;;;;;;;10299447;28;20519;-69
2023/04/22 15:48:39;;;;;;;8.18;3.25;;;;;;;;;;10299252;28;20174;-69
2023/04/22 15:53:39;;;;;;;4.90;3.20;;;;;;;;;;10299552;28;20040;-69
2023/04/22 15:58:37;;;;;;;22.58;15.52;;;;;;;;;;10303678;28;20045;-69
2023/04/22 16:03:36;;;;;;;11.25;8.02;;;;;;;;;;10303481;28;20049;-69
2023/04/22 16:08:34;;;;;;;8.68;5.63;;;;;;;;;;10298495;28;20083;-69
2023/04/22 16:13:34;;;;;;;15.18;8.75;;;;;;;;;;10297951;28;20139;-69
2023/04/22 16:18:32;;;;;;;9.20;4.65;;;;;;;;;;10296195;28;20076;-69
2023/04/22 16:23:30;;;;;;;5.57;4.13;;;;;;;;;;10298761;28;20077;-69
2023/04/22 16:28:29;;;;;;;11.48;5.38;;;;;;;;;;10299047;28;20119;-69
2023/04/22 16:33:28;;;;;;;8.48;3.53;;;;;;;;;;10295981;28;20045;-69
2023/04/22 16:38:26;;;;;;;15.23;10.77;;;;;;;;;;10295335;28;20506;-69
2023/04/22 16:43:24;;;;;;;20.85;11.77;;;;;;;;;;10297021;28;20084;-69
2023/04/22 16:48:23;;;;;;;11.40;5.55;;;;;;;;;;10297554;28;20094;-69
2023/04/22 16:53:23;;;;;;;14.65;7.00;;;;;;;;;;10296778;28;20087;-68
2023/04/22 16:58:22;;;;;;;17.92;13.80;;;;;;;;;;10294871;28;20045;-69
2023/04/22 17:03:21;;;;;;;10.20;6.03;;;;;;;;;;10295737;28;20088;-68
2023/04/22 17:08:19;;;;;;;11.02;6.72;;;;;;;;;;10294281;28;20073;-67
2023/04/22 17:13:19;;;;;;;15.55;6.38;;;;;;;;;;10295781;28;20071;-68
2023/04/22 17:18:17;;;;;;;10.27;6.22;;;;;;;;;;10294669;28;20076;-69
2023/04/22 17:23:21;;;;;;;12.27;6.20;;;;;;;;;;10274603;28;20087;-69
2023/04/22 17:28:26;;;;;;;13.15;6.75;;;;;;;;;;10273293;28;20466;-68
2023/04/22 17:33:25;;;;;;;14.93;12.10;;;;;;;;;;10278046;28;20083;-68
2023/04/22 17:38:25;;;;;;;9.70;5.93;;;;;;;;;;10281611;28;20087;-68
2023/04/22 17:43:25;;;;;;;12.85;9.25;;;;;;;;;;10279613;28;20092;-69
2023/04/22 17:48:23;;;;;;;10.13;6.70;;;;;;;;;;10278654;28;20504;-70
2023/04/22 17:53:21;;;;;;;14.02;6.40;;;;;;;;;;10267156;28;20078;-70
2023/04/22 17:58:20;;;;;;;5.93;4.93;;;;;;;;;;10280334;28;20080;-68
2023/04/22 18:03:19;;;;;;;14.80;6.45;;;;;;;;;;10271905;28;20075;-68
2023/04/22 18:08:18;;;;;;;8.32;5.63;;;;;;;;;;10291044;28;20083;-66
2023/04/22 18:13:16;;;;;;;9.57;6.05;;;;;;;;;;10285812;28;20144;-69
2023/04/22 18:18:15;;;;;;;9.55;4.53;;;;;;;;;;10263433;28;20076;-70
2023/04/22 18:23:17;;;;;;;11.60;5.28;;;;;;;;;;10273200;28;20325;-70
2023/04/22 18:28:15;;;;;;;10.18;4.68;;;;;;;;;;10275720;28;20088;-71
2023/04/22 18:33:13;;;;;;;9.55;4.70;;;;;;;;;;10279020;28;20077;-70
2023/04/22 18:38:13;;;;;;;4.68;4.18;;;;;;;;;;10283811;28;20070;-70
2023/04/22 18:43:13;;;;;;;11.98;5.60;;;;;;;;;;10270851;28;20095;-70
2023/04/22 18:48:11;;;;;;;7.50;4.97;;;;;;;;;;10262035;28;20065;-70
2023/04/22 18:53:10;;;;;;;5.60;3.95;;;;;;;;;;10263885;28;20081;-70
2023/04/22 18:58:08;;;;;;;10.80;4.97;;;;;;;;;;10266180;28;20068;-70
2023/04/22 19:03:08;;;;;;;8.57;4.20;;;;;;;;;;10268761;28;20506;-70
2023/04/22 19:08:06;;;;;;;12.40;4.82;;;;;;;;;;10271464;28;20072;-70
2023/04/22 19:13:04;;;;;;;10.23;4.70;;;;;;;;;;10268193;28;20072;-70
2023/04/22 19:18:09;;;;;;;8.13;4.97;;;;;;;;;;10263746;28;20068;-70
2023/04/22 19:23:08;;;;;;;7.85;4.85;;;;;;;;;;10269602;28;20519;-70
2023/04/22 19:28:06;;;;;;;6.53;5.10;;;;;;;;;;10262695;28;20069;-70
2023/04/22 19:33:04;;;;;;;8.15;5.22;;;;;;;;;;10272714;28;20068;-70
2023/04/22 19:38:04;;;;;;;10.65;7.57;;;;;;;;;;10277400;28;20084;-69
2023/04/22 19:43:03;;;;;;;9.15;4.80;;;;;;;;;;10276229;28;20079;-70
2023/04/22 19:48:01;;;;;;;5.43;4.20;;;;;;;;;;10277499;28;20490;-70
2023/04/22 19:53:02;;;;;;;10.02;4.90;;;;;;;;;;10276212;28;20087;-70
2023/04/22 19:58:02;;;;;;;8.02;4.38;;;;;;;;;;10276606;28;20084;-70
2023/04/22 20:03:00;;;;;;;6.85;4.57;;;;;;;;;;10277017;28;20140;-70
2023/04/22 20:08:00;;;;;;;9.98;5.25;;;;;;;;;;10274708;28;20578;-70
2023/04/22 20:12:59;;;;;;;15.52;8.77;;;;;;;;;;10264665;28;20999;-69
2023/04/22 20:17:59;;;;;;;11.32;6.72;;;;;;;;;;10270991;28;20064;-70
2023/04/22 20:23:00;;;;;;;9.52;5.97;;;;;;;;;;10301258;28;20053;-70
2023/04/22 20:27:58;;;;;;;12.20;5.93;;;;;;;;;;10279225;28;20103;-69
2023/04/22 20:32:57;;;;;;;9.93;5.38;;;;;;;;;;10277893;28;20061;-69
2023/04/22 20:37:58;;;;;;;8.73;5.10;;;;;;;;;;10274714;28;20073;-69
2023/04/22 20:42:58;;;;;;;8.15;5.10;;;;;;;;;;10275086;28;20487;-70
2023/04/22 20:47:57;;;;;;;6.32;4.40;;;;;;;;;;10276151;28;20060;-70
2023/04/22 20:52:56;;;;;;;5.72;4.97;;;;;;;;;;10275243;28;20511;-70
2023/04/22 20:57:55;;;;;;;8.60;5.30;;;;;;;;;;10275332;28;20060;-70
2023/04/22 21:02:53;;;;;;;11.32;5.28;;;;;;;;;;10275503;28;20099;-70
2023/04/22 21:07:52;;;;;;;6.00;4.85;;;;;;;;;;10274312;28;20076;-70
2023/04/22 21:12:53;;;;;;;9.52;5.63;;;;;;;;;;10274715;28;20064;-70
2023/04/22 21:17:55;;;;;;;10.38;4.72;;;;;;;;;;10274951;28;20080;-70
2023/04/22 21:22:53;;;;;;;6.47;4.40;;;;;;;;;;10274897;28;20083;-70
2023/04/22 21:27:55;;;;;;;7.80;5.43;;;;;;;;;;10272709;28;20084;-70
2023/04/22 21:32:53;;;;;;;5.07;4.45;;;;;;;;;;10273151;28;20076;-70
2023/04/22 21:37:52;;;;;;;6.13;4.72;;;;;;;;;;10272289;28;20068;-70
2023/04/22 21:42:50;;;;;;;7.50;4.55;;;;;;;;;;10274270;28;20088;-70
2023/04/22 21:47:50;;;;;;;6.03;4.10;;;;;;;;;;10273745;28;20085;-70
2023/04/22 21:52:48;;;;;;;4.43;3.83;;;;;;;;;;10273336;28;20069;-70
2023/04/22 21:57:46;;;;;;;7.82;4.93;;;;;;;;;;10275119;28;20447;-70
2023/04/22 22:02:45;;;;;;;6.40;4.43;;;;;;;;;;10274437;28;20528;-70
2023/04/22 22:07:44;;;;;;;7.60;4.78;;;;;;;;;;10272765;28;20080;-71
2023/04/22 22:12:42;;;;;;;9.93;5.00;;;;;;;;;;10272259;28;20102;-70
2023/04/22 22:17:41;;;;;;;7.57;5.80;;;;;;;;;;10272950;28;20075;-70
2023/04/22 22:22:39;;;;;;;7.45;5.28;;;;;;;;;;10273036;28;20080;-69
2023/04/22 22:27:40;;;;;;;7.93;5.35;;;;;;;;;;10269240;28;20079;-70
2023/04/22 22:32:38;;;;;;;8.38;5.57;;;;;;;;;;10272085;28;20283;-69
2023/04/22 22:37:36;;;;;;;7.40;5.15;;;;;;;;;;10272232;28;20061;-70
2023/04/22 22:42:35;;;;;;;10.18;5.05;;;;;;;;;;10272739;28;20083;-70
2023/04/22 22:47:37;;;;;;;6.97;5.90;;;;;;;;;;10273675;28;20068;-71
2023/04/22 22:52:52;;;;;;;10.65;6.28;;;;;;;;;;10272234;28;20076;-70
2023/04/22 22:57:50;;;;;;;9.73;6.65;;;;;;;;;;10272258;28;20081;-70
2023/04/22 23:02:50;;;;;;;9.80;6.10;;;;;;;;;;10272401;28;20080;-69
2023/04/22 23:07:48;;;;;;;16.70;5.47;;;;;;;;;;10277770;28;20084;-70
2023/04/22 23:12:46;;;;;;;6.40;4.82;;;;;;;;;;10279867;28;20501;-70
2023/04/22 23:17:52;;;;;;;8.25;5.32;;;;;;;;;;10279920;28;20073;-69
2023/04/22 23:23:01;;;;;;;6.53;5.43;;;;;;;;;;10279163;28;20089;-70
2023/04/22 23:28:00;;;;;;;8.55;4.95;;;;;;;;;;10277265;28;20084;-69
2023/04/22 23:33:02;;;;;;;6.15;4.43;;;;;;;;;;10279671;28;20079;-69
2023/04/22 23:38:00;;;;;;;5.53;4.40;;;;;;;;;;10277481;28;20075;-70
2023/04/22 23:42:58;;;;;;;6.68;4.38;;;;;;;;;;10279370;28;20088;-70
2023/04/22 23:47:56;;;;;;;5.18;4.68;;;;;;;;;;10277575;28;20475;-71
2023/04/22 23:52:56;;;;;;;6.07;4.43;;;;;;;;;;10278172;28;20517;-70
2023/04/22 23:58:02;;;;;;;5.88;4.63;;;;;;;;;;10279104;28;20463;-71
